Time;durP1;ratioP1;P1;durP2;ratioP2;P2;SDS_P1;SDS_P2;PMS_P1;PMS_P2;Temp;Humidity;BMP_temperature;BMP_pressure;BME280_temperature;BME280_humidity;BME280_pressure;Samples;Min_cycle;Max_cycle;Signal;HPM_P1;HPM_P2
2021/11/20 00:01:58;;;;;;;42.17;27.90;;;7.30;91.80;;;;;;5031735;28;20402;-69
2021/11/20 00:04:26;;;;;;;38.67;26.10;;;7.30;91.80;;;;;;5033444;28;20464;-69
2021/11/20 00:06:54;;;;;;;37.35;26.02;;;7.20;91.90;;;;;;5033265;28;20894;-69
2021/11/20 00:09:24;;;;;;;43.33;28.00;;;7.20;91.90;;;;;;5031879;28;20410;-70
2021/11/20 00:11:53;;;;;;;39.80;23.25;;;7.20;91.80;;;;;;5038922;28;20046;-70
2021/11/20 00:14:22;;;;;;;34.88;21.27;;;7.20;91.90;;;;;;5035990;28;20052;-75
2021/11/20 00:16:52;;;;;;;42.47;24.02;;;7.10;92.00;;;;;;5028709;28;20046;-70
2021/11/20 00:19:22;;;;;;;42.13;23.40;;;6.90;92.50;;;;;;5026820;28;20071;-69
2021/11/20 00:22:05;;;;;;;44.97;24.63;;;6.90;92.70;;;;;;5018807;28;20054;-69
2021/11/20 00:24:33;;;;;;;;;;;6.80;92.90;;;;;;5036235;28;20056;-73
2021/11/20 00:27:01;;;;;;;;;;;6.90;92.80;;;;;;5035821;28;20373;-74
2021/11/20 00:32:28;;;;;;;;;;;6.90;92.80;;;;;;5034140;28;20419;-73
2021/11/20 00:34:56;;;;;;;;;;;6.80;92.80;;;;;;5033696;28;19991;-74
2021/11/20 00:37:23;;;;;;;;;;;6.80;92.90;;;;;;5031791;28;20356;-75
2021/11/20 00:39:51;;;;;;;;;;;6.90;92.80;;;;;;5035910;28;19971;-70
2021/11/20 00:42:18;;;;;;;;;;;6.90;92.60;;;;;;5034528;28;20328;-75
2021/11/20 00:44:46;;;;;;;;;;;6.80;92.90;;;;;;5034979;28;19921;-75
2021/11/20 00:47:12;;;;;;;;;;;6.70;93.20;;;;;;5034528;28;19921;-74
2021/11/20 00:49:39;;;;;;;;;;;6.60;93.30;;;;;;5030548;28;19971;-70
2021/11/20 00:52:06;;;;;;;;;;;6.60;93.40;;;;;;5032777;28;19976;-70
2021/11/20 00:54:34;;;;;;;;;;;6.60;93.60;;;;;;5033744;28;19971;-74
2021/11/20 00:57:01;;;;;;;;;;;6.60;93.70;;;;;;5031157;28;19921;-70
2021/11/20 00:59:28;;;;;;;;;;;6.60;93.70;;;;;;5033573;28;19974;-73
2021/11/20 01:01:59;;;;;;;;;;;6.50;93.70;;;;;;5034185;28;19924;-74
2021/11/20 01:04:27;;;;;;;;;;;6.50;93.70;;;;;;5033092;28;19925;-74
2021/11/20 01:06:55;;;;;;;;;;;6.50;93.80;;;;;;5035249;28;19921;-75
2021/11/20 01:09:24;;;;;;;;;;;6.50;93.80;;;;;;5024435;28;19928;-70
2021/11/20 01:12:16;;;;;;;;;;;6.50;93.70;;;;;;5034120;28;19925;-74
2021/11/20 01:14:44;;;;;;;;;;;6.50;93.80;;;;;;5029831;28;19925;-74
2021/11/20 01:17:12;;;;;;;;;;;6.40;93.90;;;;;;5024537;28;19921;-70
2021/11/20 01:19:39;;;;;;;;;;;6.40;93.90;;;;;;5031511;28;20316;-70
2021/11/20 01:22:08;;;;;;;;;;;6.40;94.00;;;;;;5037660;28;20369;-75
2021/11/20 01:24:35;;;;;;;;;;;6.40;94.00;;;;;;5032249;28;19925;-75
2021/11/20 01:27:03;;;;;;;;;;;6.40;94.00;;;;;;5032706;28;19921;-69
2021/11/20 01:29:30;;;;;;;;;;;6.50;94.00;;;;;;5033624;28;20330;-73
2021/11/20 01:31:57;;;;;;;;;;;6.50;94.00;;;;;;5032670;28;19924;-73
2021/11/20 01:34:25;;;;;;;;;;;6.40;94.00;;;;;;5033509;28;20365;-70
2021/11/20 01:36:53;;;;;;;;;;;6.50;94.00;;;;;;5033017;28;20357;-75
2021/11/20 01:39:22;;;;;;;;;;;6.40;94.00;;;;;;5033801;28;20423;-74
2021/11/20 01:41:54;;;;;;;;;;;6.40;94.10;;;;;;5030754;28;19971;-73
2021/11/20 01:44:22;;;;;;;;;;;6.40;94.00;;;;;;5030875;28;19980;-69
2021/11/20 01:46:54;;;;;;;;;;;6.40;94.00;;;;;;5032181;28;19928;-70
2021/11/20 01:49:28;;;;;;;;;;;6.40;94.10;;;;;;5026223;28;19923;-75
2021/11/20 01:52:00;;;;;;;;;;;6.40;94.10;;;;;;5033643;28;20331;-70
2021/11/20 01:54:38;;;;;;;;;;;6.30;94.20;;;;;;5029458;28;19925;-74
2021/11/20 01:57:14;;;;;;;;;;;6.30;94.20;;;;;;5033547;28;20301;-70
2021/11/20 01:59:46;;;;;;;;;;;6.40;94.20;;;;;;5032311;28;19982;-70
2021/11/20 02:02:22;;;;;;;;;;;6.30;94.20;;;;;;5033219;28;19921;-69
2021/11/20 02:05:11;;;;;;;;;;;6.30;94.30;;;;;;5038727;28;19968;-69
2021/11/20 02:07:41;;;;;;;;;;;6.30;94.30;;;;;;5028099;28;19952;-74
2021/11/20 02:10:19;;;;;;;;;;;6.30;94.30;;;;;;5032365;28;19975;-75
2021/11/20 02:12:52;;;;;;;;;;;6.30;94.40;;;;;;5032907;28;19971;-74
2021/11/20 02:15:40;;;;;;;;;;;6.30;94.30;;;;;;5035915;28;19921;-69
2021/11/20 02:18:08;;;;;;;;;;;6.20;94.30;;;;;;5031566;28;20336;-75
2021/11/20 02:20:34;;;;;;;;;;;6.10;94.60;;;;;;5020880;28;20360;-75
2021/11/20 02:23:01;;;;;;;;;;;6.10;94.70;;;;;;5013747;28;19928;-69
2021/11/20 02:25:28;;;;;;;;;;;6.10;94.70;;;;;;5025240;28;19975;-70
2021/11/20 02:27:56;;;;;;;;;;;6.10;94.70;;;;;;5036892;28;19928;-75
2021/11/20 02:30:28;;;;;;;;;;;6.10;94.60;;;;;;5025462;28;20377;-73
2021/11/20 02:32:55;;;;;;;;;;;6.00;94.80;;;;;;5037155;28;20345;-69
2021/11/20 02:35:30;;;;;;;;;;;6.00;94.90;;;;;;5035831;28;19921;-70
2021/11/20 02:37:57;;;;;;;;;;;6.00;94.80;;;;;;5037040;28;20377;-69
2021/11/20 02:40:25;;;;;;;;;;;5.90;94.90;;;;;;5031804;28;19998;-68
2021/11/20 02:42:51;;;;;;;;;;;5.90;95.00;;;;;;5029555;28;19921;-69
2021/11/20 02:45:21;;;;;;;;;;;6.00;95.00;;;;;;5037441;28;19991;-73
2021/11/20 02:47:48;;;;;;;;;;;6.00;94.90;;;;;;5032879;28;19924;-70
2021/11/20 02:50:15;;;;;;;;;;;5.90;95.00;;;;;;5036782;28;19920;-74
2021/11/20 02:52:42;;;;;;;;;;;5.90;95.10;;;;;;5031406;28;19921;-70
2021/11/20 02:55:09;;;;;;;;;;;6.00;95.10;;;;;;5027708;28;19921;-69
2021/11/20 02:57:37;;;;;;;;;;;6.00;95.10;;;;;;5032190;28;19970;-70
2021/11/20 03:00:05;;;;;;;;;;;6.00;95.00;;;;;;5039852;28;19921;-75
2021/11/20 03:02:32;;;;;;;;;;;6.00;94.90;;;;;;5036764;28;19975;-70
2021/11/20 03:05:00;;;;;;;;;;;6.00;94.90;;;;;;5036431;28;19927;-71
2021/11/20 03:07:27;;;;;;;;;;;6.00;94.90;;;;;;5035199;28;19921;-74
2021/11/20 03:09:54;;;;;;;;;;;6.00;94.80;;;;;;5036524;28;20357;-70
2021/11/20 03:12:21;;;;;;;;;;;6.00;94.80;;;;;;5035016;28;19921;-75
2021/11/20 03:14:47;;;;;;;;;;;6.00;94.80;;;;;;5036737;28;20393;-73
2021/11/20 03:17:14;;;;;;;;;;;6.00;94.70;;;;;;5036710;28;19924;-74
2021/11/20 03:19:43;;;;;;;;;;;6.00;94.70;;;;;;5044605;28;19928;-73
2021/11/20 03:22:12;;;;;;;;;;;6.00;94.80;;;;;;5023654;28;19921;-70
2021/11/20 03:24:38;;;;;;;;;;;6.00;94.70;;;;;;5027839;28;19928;-74
2021/11/20 03:27:06;;;;;;;;;;;5.90;94.80;;;;;;5036611;28;19921;-70
2021/11/20 03:29:33;;;;;;;;;;;5.90;94.80;;;;;;5038474;28;20284;-74
2021/11/20 03:32:00;;;;;;;;;;;5.80;94.80;;;;;;5031655;28;20348;-70
2021/11/20 03:34:29;;;;;;;;;;;5.80;95.00;;;;;;5031133;28;19925;-70
2021/11/20 03:36:56;;;;;;;;;;;5.80;95.00;;;;;;5035716;28;19924;-70
2021/11/20 03:39:23;;;;;;;;;;;5.80;95.10;;;;;;5035805;28;20443;-70
2021/11/20 03:41:50;;;;;;;;;;;5.80;95.20;;;;;;5035091;28;19921;-69
2021/11/20 03:44:17;;;;;;;;;;;5.80;95.20;;;;;;5034286;28;19983;-70
2021/11/20 03:46:44;;;;;;;;;;;5.80;95.10;;;;;;5024965;28;19925;-70
2021/11/20 03:49:11;;;;;;;;;;;5.80;95.10;;;;;;5032114;28;19921;-74
2021/11/20 03:51:38;;;;;;;;;;;5.80;95.00;;;;;;5032850;28;20325;-74
2021/11/20 03:54:05;;;;;;;;;;;5.80;95.20;;;;;;5038909;28;20335;-70
2021/11/20 03:56:32;;;;;;;;;;;5.70;95.10;;;;;;5039980;28;19921;-70
2021/11/20 03:58:59;;;;;;;;;;;5.80;95.10;;;;;;5035481;28;19929;-76
2021/11/20 04:01:27;;;;;;;;;;;5.70;95.20;;;;;;5034214;28;19925;-75
2021/11/20 04:03:54;;;;;;;;;;;5.70;95.20;;;;;;5034345;28;19928;-70
2021/11/20 04:06:21;;;;;;;;;;;5.70;95.20;;;;;;5029610;28;19922;-76
2021/11/20 04:08:49;;;;;;;;;;;5.70;95.70;;;;;;5017265;28;19921;-74
2021/11/20 04:11:21;;;;;;;;;;;5.70;95.20;;;;;;5034496;28;19928;-75
2021/11/20 04:13:47;;;;;;;;;;;5.80;95.20;;;;;;5034451;28;19921;-74
2021/11/20 04:16:15;;;;;;;;;;;5.80;95.20;;;;;;5035279;28;20369;-70
2021/11/20 04:18:44;;;;;;;;;;;5.80;95.10;;;;;;5035201;28;20376;-71
2021/11/20 04:21:13;;;;;;;;;;;5.80;95.10;;;;;;5022535;28;19921;-75
2021/11/20 04:23:41;;;;;;;;;;;5.80;95.10;;;;;;5023616;28;19921;-70
2021/11/20 04:26:08;;;;;;;;;;;5.80;95.00;;;;;;5041447;28;20415;-75
2021/11/20 04:28:35;;;;;;;;;;;5.90;95.00;;;;;;5033415;28;19967;-70
2021/11/20 04:31:01;;;;;;;;;;;5.90;94.90;;;;;;5034990;28;19967;-74
2021/11/20 04:33:29;;;;;;;;;;;5.90;94.90;;;;;;5034529;28;20262;-71
2021/11/20 04:35:56;;;;;;;;;;;5.90;94.80;;;;;;5015281;28;19922;-70
2021/11/20 04:38:23;;;;;;;;;;;5.90;94.70;;;;;;5037079;28;19920;-70
2021/11/20 04:40:50;;;;;;;;;;;5.90;94.60;;;;;;5035159;28;19925;-70
2021/11/20 04:43:17;;;;;;;;;;;5.90;94.60;;;;;;5034766;28;19921;-74
2021/11/20 04:45:44;;;;;;;;;;;5.90;94.50;;;;;;5034219;28;19920;-74
2021/11/20 04:48:11;;;;;;;;;;;5.90;94.40;;;;;;5034122;28;20380;-74
2021/11/20 04:50:38;;;;;;;;;;;5.80;94.30;;;;;;5033374;28;19974;-75
2021/11/20 04:53:05;;;;;;;;;;;5.70;94.40;;;;;;5038588;28;19921;-74
2021/11/20 04:55:32;;;;;;;;;;;5.70;94.60;;;;;;5032667;28;19920;-70
2021/11/20 04:57:58;;;;;;;;;;;5.70;94.60;;;;;;5020402;28;20409;-70
2021/11/20 05:00:28;;;;;;;;;;;5.70;94.60;;;;;;5033280;28;19925;-76
2021/11/20 05:02:56;;;;;;;;;;;5.70;94.60;;;;;;5031693;28;19944;-76
2021/11/20 05:05:23;;;;;;;;;;;5.70;94.60;;;;;;5031924;28;19963;-70
2021/11/20 05:07:50;;;;;;;;;;;5.70;94.60;;;;;;5039203;28;20430;-75
2021/11/20 05:10:17;;;;;;;;;;;5.70;94.60;;;;;;5026171;28;19971;-70
2021/11/20 05:12:44;;;;;;;;;;;5.60;94.70;;;;;;5027749;28;19921;-70
2021/11/20 05:15:12;;;;;;;;;;;5.60;94.70;;;;;;5032533;28;19987;-70
2021/11/20 05:17:39;;;;;;;;;;;5.60;94.70;;;;;;5036393;28;19975;-74
2021/11/20 05:20:11;;;;;;;;;;;5.60;94.70;;;;;;5030974;28;19986;-70
2021/11/20 05:22:38;;;;;;;;;;;5.60;94.80;;;;;;5033825;28;19967;-76
2021/11/20 05:25:06;;;;;;;;;;;5.70;94.80;;;;;;5033857;28;19971;-70
2021/11/20 05:27:33;;;;;;;;;;;5.70;95.20;;;;;;5032334;28;19921;-70
2021/11/20 05:30:05;;;;;;;;;;;5.70;94.70;;;;;;5032434;28;19920;-70
2021/11/20 05:32:32;;;;;;;;;;;5.70;94.70;;;;;;5026552;28;20389;-71
2021/11/20 05:34:59;;;;;;;;;;;5.70;94.60;;;;;;5040136;28;19933;-70
2021/11/20 05:37:26;;;;;;;;;;;5.70;94.70;;;;;;5023367;28;19925;-70
2021/11/20 05:39:53;;;;;;;;;;;5.70;94.60;;;;;;5032789;28;20388;-71
2021/11/20 05:42:20;;;;;;;;;;;5.60;94.60;;;;;;5031455;28;19921;-70
2021/11/20 05:44:46;;;;;;;;;;;5.60;94.70;;;;;;5033399;28;19921;-71
2021/11/20 05:47:13;;;;;;;;;;;5.60;94.70;;;;;;5032400;28;20293;-74
2021/11/20 05:49:41;;;;;;;;;;;5.60;94.80;;;;;;5028168;28;19922;-70
2021/11/20 05:52:09;;;;;;;;;;;5.60;94.70;;;;;;5024347;28;20012;-70
2021/11/20 05:54:35;;;;;;;;;;;5.60;94.80;;;;;;5019506;28;19991;-74
2021/11/20 05:57:02;;;;;;;;;;;5.60;94.80;;;;;;5033395;28;20328;-76
2021/11/20 05:59:29;;;;;;;;;;;5.60;95.20;;;;;;5031196;28;20320;-73
2021/11/20 06:01:56;;;;;;;;;;;5.60;94.80;;;;;;5035689;28;19928;-70
2021/11/20 06:04:26;;;;;;;;;;;5.70;94.70;;;;;;5046975;28;19927;-74
2021/11/20 06:06:53;;;;;;;;;;;5.70;94.80;;;;;;5035270;28;19921;-70
2021/11/20 06:09:20;;;;;;;;;;;5.70;94.70;;;;;;5036362;28;19925;-70
2021/11/20 06:11:47;;;;;;;;;;;5.70;94.70;;;;;;5033658;28;20325;-70
2021/11/20 06:14:13;;;;;;;;;;;5.70;94.70;;;;;;5028860;28;19971;-70
2021/11/20 06:16:40;;;;;;;;;;;5.70;94.60;;;;;;5038318;28;19929;-71
2021/11/20 06:19:10;;;;;;;;;;;5.70;94.60;;;;;;5043743;28;19925;-70
2021/11/20 06:21:37;;;;;;;;;;;5.70;94.50;;;;;;5032568;28;19920;-69
2021/11/20 06:24:04;;;;;;;;;;;5.60;94.30;;;;;;5028324;28;19925;-71
2021/11/20 06:26:32;;;;;;;;;;;5.50;94.40;;;;;;5029816;28;20310;-70
2021/11/20 06:28:59;;;;;;;;;;;5.50;94.50;;;;;;5026332;28;19922;-70
2021/11/20 06:31:26;;;;;;;;;;;5.50;94.60;;;;;;5040667;28;20336;-74
2021/11/20 06:33:54;;;;;;;;;;;5.60;94.60;;;;;;5040894;28;20384;-70
2021/11/20 06:36:22;;;;;;;;;;;5.40;94.50;;;;;;5033626;28;19925;-74
2021/11/20 06:38:49;;;;;;;;;;;5.40;94.70;;;;;;5031927;28;20357;-75
2021/11/20 06:41:16;;;;;;;;;;;5.40;94.80;;;;;;5035266;28;19921;-71
2021/11/20 06:43:43;;;;;;;;;;;5.40;94.80;;;;;;5036797;28;19921;-72
2021/11/20 06:46:12;;;;;;;;;;;5.40;94.80;;;;;;5042650;28;20324;-74
2021/11/20 06:48:40;;;;;;;;;;;5.40;94.80;;;;;;5035853;28;19944;-71
2021/11/20 06:51:06;;;;;;;;;;;5.40;94.70;;;;;;5033550;28;19929;-70
2021/11/20 06:53:33;;;;;;;;;;;5.40;94.70;;;;;;5020791;28;19922;-70
2021/11/20 06:56:01;;;;;;;;;;;5.40;94.70;;;;;;5034095;28;20288;-74
2021/11/20 07:01:07;;;;;;;;;;;5.50;94.60;;;;;;5035628;28;19928;-70
2021/11/20 07:03:39;;;;;;;;;;;5.50;94.60;;;;;;5034564;28;19921;-69
2021/11/20 07:06:08;;;;;;;;;;;5.50;94.60;;;;;;5036312;28;19921;-75
2021/11/20 07:08:38;;;;;;;;;;;5.50;94.60;;;;;;5029709;28;19929;-70
2021/11/20 07:11:05;;;;;;;;;;;5.40;94.50;;;;;;5028688;28;19922;-75
2021/11/20 07:13:31;;;;;;;;;;;5.40;94.50;;;;;;5030820;28;19929;-69
2021/11/20 07:15:58;;;;;;;;;;;5.50;94.50;;;;;;5028365;28;19925;-70
2021/11/20 07:18:26;;;;;;;;;;;5.40;94.50;;;;;;5038571;28;20003;-69
2021/11/20 07:20:53;;;;;;;;;;;5.40;94.50;;;;;;5036198;28;20360;-75
2021/11/20 07:23:19;;;;;;;;;;;5.40;94.50;;;;;;5036192;28;20388;-73
2021/11/20 07:25:46;;;;;;;;;;;5.40;94.50;;;;;;5034844;28;19921;-69
2021/11/20 07:28:13;;;;;;;;;;;5.40;94.50;;;;;;5037171;28;19921;-74
2021/11/20 07:30:41;;;;;;;;;;;5.40;94.50;;;;;;5034471;28;19964;-74
2021/11/20 07:33:09;;;;;;;;;;;5.30;94.50;;;;;;5035529;28;19983;-69
2021/11/20 07:35:46;;;;;;;;;;;5.20;94.60;;;;;;5031908;28;19921;-74
2021/11/20 07:38:15;;;;;;;;;;;5.20;94.70;;;;;;5033969;28;19921;-73
2021/11/20 07:40:42;;;;;;;;;;;5.20;94.80;;;;;;5032899;28;19947;-75
2021/11/20 07:43:09;;;;;;;;;;;5.30;95.20;;;;;;5036266;28;19925;-75
2021/11/20 07:45:36;;;;;;;;;;;5.30;94.80;;;;;;5034857;28;19967;-73
2021/11/20 07:48:04;;;;;;;;;;;5.20;94.80;;;;;;5035618;28;19964;-69
2021/11/20 07:50:36;;;;;;;;;;;5.20;94.80;;;;;;5030409;28;19921;-69
2021/11/20 07:53:03;;;;;;;;;;;5.10;94.80;;;;;;5018294;28;19921;-69
2021/11/20 07:55:29;;;;;;;;;;;5.10;94.90;;;;;;5034169;28;19921;-74
2021/11/20 07:57:56;;;;;;;;;;;5.10;95.00;;;;;;5030568;28;20373;-74
2021/11/20 08:00:24;;;;;;;;;;;5.20;95.00;;;;;;5035032;28;20399;-74
2021/11/20 08:02:51;;;;;;;;;;;5.30;95.00;;;;;;5032697;28;19925;-75
2021/11/20 08:05:19;;;;;;;;;;;5.30;94.90;;;;;;5032473;28;19921;-69
2021/11/20 08:07:46;;;;;;;;;;;5.40;94.80;;;;;;5034998;28;19921;-70
2021/11/20 08:10:15;;;;;;;;;;;5.40;94.60;;;;;;5035122;28;19974;-70
2021/11/20 08:12:42;;;;;;;;;;;5.40;94.40;;;;;;5035552;28;19970;-70
2021/11/20 08:15:09;;;;;;;;;;;5.40;94.40;;;;;;5031849;28;20286;-74
2021/11/20 08:17:36;;;;;;;;;;;5.40;94.40;;;;;;5026954;28;19987;-70
2021/11/20 08:20:04;;;;;;;;;;;5.40;94.30;;;;;;5034897;28;20368;-74
2021/11/20 08:22:31;;;;;;;;;;;5.40;94.30;;;;;;5031671;28;19925;-73
2021/11/20 08:24:57;;;;;;;;;;;5.40;94.30;;;;;;5032524;28;19929;-70
2021/11/20 08:27:24;;;;;;;;;;;5.30;94.60;;;;;;5033597;28;19951;-75
2021/11/20 08:29:51;;;;;;;;;;;5.40;94.70;;;;;;5032922;28;19983;-70
2021/11/20 08:32:18;;;;;;;;;;;5.40;94.70;;;;;;5033488;28;19975;-75
2021/11/20 08:34:45;;;;;;;;;;;5.40;94.70;;;;;;5033798;28;19935;-75
2021/11/20 08:37:12;;;;;;;;;;;5.40;94.70;;;;;;5033109;28;19936;-75
2021/11/20 08:39:39;;;;;;;;;;;5.40;94.50;;;;;;5039770;28;19928;-70
2021/11/20 08:42:06;;;;;;;;;;;5.40;94.40;;;;;;5034031;28;19975;-75
2021/11/20 08:44:33;;;;;;;;;;;5.30;94.60;;;;;;5033034;28;19978;-74
2021/11/20 08:47:03;;;;;;;;;;;5.30;94.60;;;;;;5033593;28;19921;-70
2021/11/20 08:49:30;;;;;;;;;;;5.40;94.70;;;;;;5032151;28;19928;-70
2021/11/20 08:51:57;;;;;;;;;;;5.40;94.70;;;;;;5034051;28;20318;-70
2021/11/20 08:54:24;;;;;;;;;;;5.40;94.70;;;;;;5033385;28;20015;-70
2021/11/20 08:56:53;;;;;;;;;;;5.30;94.40;;;;;;5032345;28;19924;-75
2021/11/20 08:59:22;;;;;;;;;;;5.10;94.60;;;;;;5032793;28;19928;-76
2021/11/20 09:01:52;;;;;;;;;;;5.10;94.80;;;;;;5022090;28;20285;-70
2021/11/20 09:04:23;;;;;;;;;;;5.20;94.80;;;;;;5040153;28;20430;-71
2021/11/20 09:07:06;;;;;;;;;;;5.30;94.90;;;;;;5039051;28;19921;-75
2021/11/20 09:09:43;;;;;;;;;;;5.40;94.90;;;;;;5035233;28;19921;-70
2021/11/20 09:12:17;;;;;;;;;;;5.50;94.80;;;;;;5033960;28;19971;-69
2021/11/20 09:14:47;;;;;;;;;;;5.60;94.60;;;;;;5033222;28;20368;-70
2021/11/20 09:17:14;;;;;;;;;;;5.60;94.40;;;;;;5014683;28;20404;-75
2021/11/20 09:19:41;;;;;;;;;;;5.70;94.20;;;;;;5035022;28;19921;-75
2021/11/20 09:22:09;;;;;;;;;;;5.70;94.20;;;;;;5030624;28;19983;-69
2021/11/20 09:24:38;;;;;;;;;;;5.80;94.20;;;;;;5026982;28;20254;-69
2021/11/20 09:27:25;;;;;;;;;;;5.80;94.00;;;;;;5033981;28;20016;-70
2021/11/20 09:29:52;;;;;;;;;;;5.80;93.90;;;;;;5033875;28;19990;-76
2021/11/20 09:32:19;;;;;;;;;;;5.80;93.90;;;;;;5032910;28;19979;-70
2021/11/20 09:34:46;;;;;;;;;;;5.90;93.80;;;;;;5036627;28;20357;-70
2021/11/20 09:37:13;;;;;;;;;;;5.90;93.80;;;;;;5033601;28;20423;-70
2021/11/20 09:39:40;;;;;;;;;;;5.90;93.60;;;;;;5031565;28;19921;-70
2021/11/20 09:42:22;;;;;;;;;;;5.70;93.80;;;;;;5027133;28;20279;-75
2021/11/20 09:44:52;;;;;;;;;;;5.70;94.10;;;;;;5031537;28;19924;-76
2021/11/20 09:47:29;;;;;;;;;;;5.80;93.90;;;;;;5033719;28;19921;-74
2021/11/20 09:50:16;;;;;;;;;;;5.80;94.00;;;;;;5032955;28;19920;-76
2021/11/20 09:52:44;;;;;;;;;;;5.80;93.90;;;;;;5031954;28;19921;-70
2021/11/20 09:55:14;;;;;;;;;;;5.90;93.90;;;;;;5024002;28;19921;-76
2021/11/20 09:57:43;;;;;;;;;;;6.00;93.50;;;;;;5027758;28;19921;-75
2021/11/20 10:00:36;;;;;;;;;;;5.90;93.50;;;;;;5024378;28;20369;-75
2021/11/20 10:03:05;;;;;;;;;;;5.90;93.70;;;;;;5029978;28;19921;-69
2021/11/20 10:05:35;;;;;;;;;;;6.00;93.70;;;;;;5035790;28;19929;-69
2021/11/20 10:08:02;;;;;;;;;;;6.10;93.70;;;;;;5030884;28;19994;-70
2021/11/20 10:10:32;;;;;;;;;;;6.10;93.60;;;;;;5029512;28;19928;-75
2021/11/20 10:13:10;;;;;;;;;;;6.20;93.40;;;;;;5031608;28;19921;-75
2021/11/20 10:15:41;;;;;;;;;;;6.10;93.20;;;;;;5047336;28;19921;-75
2021/11/20 10:18:11;;;;;;;;;;;6.10;93.30;;;;;;5046356;28;19920;-72
2021/11/20 10:20:41;;;;;;;;;;;6.10;93.30;;;;;;5034608;28;19951;-75
2021/11/20 10:23:11;;;;;;;;;;;6.10;93.30;;;;;;5038552;28;20443;-70
2021/11/20 10:25:46;;;;;;;;;;;6.00;93.50;;;;;;5020044;28;19929;-75
2021/11/20 10:28:13;;;;;;;;;;;6.10;93.50;;;;;;5026984;28;19929;-70
2021/11/20 10:30:40;;;;;;;;;;;6.10;93.50;;;;;;5024072;28;20420;-69
2021/11/20 10:33:16;;;;;;;;;;;6.20;93.30;;;;;;5048812;28;19921;-75
2021/11/20 10:35:48;;;;;;;;;;;6.10;93.00;;;;;;5041382;28;19936;-75
2021/11/20 10:38:29;;;;;;;;;;;6.10;93.30;;;;;;5034152;28;19958;-74
2021/11/20 10:41:10;;;;;;;;;;;6.20;93.40;;;;;;5033812;28;20365;-69
2021/11/20 10:43:45;;;;;;;;;;;6.30;93.40;;;;;;5033051;28;19943;-71
2021/11/20 10:46:21;;;;;;;;;;;6.40;93.10;;;;;;5032637;28;20304;-70
2021/11/20 10:49:04;;;;;;;;;;;6.50;93.00;;;;;;5036764;28;19927;-70
2021/11/20 10:51:48;;;;;;;;;;;6.60;92.80;;;;;;5035485;28;19921;-75
2021/11/20 10:54:17;;;;;;;;;;;6.60;92.70;;;;;;5026096;28;20363;-70
2021/11/20 10:57:03;;;;;;;;;;;6.70;92.40;;;;;;5026163;28;20372;-69
2021/11/20 10:59:44;;;;;;;;;;;6.80;92.40;;;;;;5039609;28;20336;-75
2021/11/20 11:02:12;;;;;;;;;;;6.80;92.40;;;;;;5042224;28;19975;-76
2021/11/20 11:04:52;;;;;;;;;;;6.90;92.10;;;;;;5033702;28;20589;-70
2021/11/20 11:07:23;;;;;;;;;;;6.90;92.00;;;;;;5035131;28;19970;-70
2021/11/20 11:09:56;;;;;;;;;;;7.00;92.00;;;;;;5034145;28;19947;-75
2021/11/20 11:12:25;;;;;;;;;;;7.10;91.90;;;;;;5021302;28;19924;-70
2021/11/20 11:15:02;;;;;;;;;;;7.20;91.90;;;;;;5040826;28;19975;-70
2021/11/20 11:17:38;;;;;;;;;;;7.30;91.70;;;;;;5042387;28;20262;-71
2021/11/20 11:20:31;;;;;;;31.67;16.85;;;7.30;91.50;;;;;;5024733;28;19932;-75
2021/11/20 11:23:12;;;;;;;27.23;19.30;;;7.40;91.30;;;;;;5034768;28;20453;-70
2021/11/20 11:26:03;;;;;;;29.15;18.13;;;7.50;91.30;;;;;;5033094;28;20406;-70
2021/11/20 11:28:34;;;;;;;25.00;15.68;;;7.60;91.20;;;;;;5036292;28;20457;-74
2021/11/20 11:31:26;;;;;;;30.67;17.67;;;7.60;91.10;;;;;;5025772;28;20469;-70
2021/11/20 11:34:20;;;;;;;30.00;18.80;;;7.60;91.00;;;;;;5033138;28;20045;-69
2021/11/20 11:37:05;;;;;;;29.13;15.90;;;7.60;90.80;;;;;;5027796;28;20053;-72
2021/11/20 11:39:34;;;;;;;31.02;17.08;;;7.70;90.90;;;;;;5034283;28;20045;-76
2021/11/20 11:42:39;;;;;;;28.77;18.00;;;7.80;91.00;;;;;;5044536;28;20553;-72
2021/11/20 11:45:07;;;;;;;;;;;7.90;90.60;;;;;;5027476;28;20500;-71
2021/11/20 11:47:54;;;;;;;31.30;17.83;;;7.90;90.20;;;;;;5035262;28;19979;-72
2021/11/20 11:50:50;;;;;;;29.15;18.13;;;7.90;90.10;;;;;;5034316;28;20456;-72
2021/11/20 11:53:58;;;;;;;29.67;18.30;;;7.90;90.20;;;;;;5033943;28;20052;-75
2021/11/20 11:56:39;;;;;;;;;;;7.90;90.00;;;;;;5041891;28;20056;-77
2021/11/20 11:59:22;;;;;;;30.90;17.70;;;7.80;90.30;;;;;;5032736;28;19936;-70
2021/11/20 12:01:52;;;;;;;;;;;7.80;90.20;;;;;;5032354;28;20045;-69
2021/11/20 12:04:35;;;;;;;31.15;18.15;;;7.80;90.10;;;;;;5027788;28;19990;-75
2021/11/20 12:07:24;;;;;;;31.35;18.23;;;7.60;90.40;;;;;;5028640;28;20505;-69
2021/11/20 12:10:11;;;;;;;36.08;21.38;;;7.70;90.70;;;;;;5030519;28;20048;-75
2021/11/20 12:12:51;;;;;;;34.92;20.02;;;7.80;90.50;;;;;;5032813;28;20049;-72
2021/11/20 12:15:18;;;;;;;32.53;20.02;;;7.70;90.40;;;;;;5033854;28;20474;-70
2021/11/20 12:18:10;;;;;;;30.80;19.05;;;7.70;90.60;;;;;;5022811;28;20057;-75
2021/11/20 12:20:57;;;;;;;31.95;19.25;;;7.90;90.40;;;;;;5016548;28;20050;-74
2021/11/20 12:23:47;;;;;;;28.30;18.25;;;8.10;89.80;;;;;;5033569;28;20041;-70
2021/11/20 12:26:23;;;;;;;32.97;19.35;;;8.20;89.50;;;;;;5037753;28;20108;-75
2021/11/20 12:28:50;;;;;;;25.30;17.63;;;8.20;88.80;;;;;;5033493;28;20049;-70
2021/11/20 12:31:55;;;;;;;28.58;18.92;;;7.90;89.10;;;;;;5029354;28;20064;-76
2021/11/20 12:34:49;;;;;;;26.20;17.00;;;7.80;90.00;;;;;;5026971;28;20042;-76
2021/11/20 12:37:36;;;;;;;31.67;19.38;;;7.90;90.10;;;;;;5035495;28;20148;-75
2021/11/20 12:40:15;;;;;;;29.63;19.15;;;8.00;90.10;;;;;;5041993;28;20460;-76
2021/11/20 12:42:49;;;;;;;28.73;18.45;;;8.20;89.90;;;;;;5029652;28;20471;-70
2021/11/20 12:45:19;;;;;;;30.15;19.83;;;8.20;89.00;;;;;;5018289;28;20061;-75
2021/11/20 12:47:56;;;;;;;33.28;20.77;;;8.20;88.90;;;;;;5033824;28;20167;-75
2021/11/20 12:50:48;;;;;;;30.65;19.77;;;8.10;88.70;;;;;;5034031;28;20060;-76
2021/11/20 12:53:15;;;;;;;29.17;19.38;;;8.20;89.20;;;;;;5045569;28;20103;-70
2021/11/20 12:55:48;;;;;;;32.38;21.42;;;8.40;89.30;;;;;;5033671;28;20100;-71
2021/11/20 12:58:17;;;;;;;35.90;22.33;;;8.60;89.00;;;;;;5032849;28;20517;-76
2021/11/20 13:00:50;;;;;;;29.40;19.50;;;8.80;87.40;;;;;;5033537;28;20041;-75
2021/11/20 13:03:30;;;;;;;36.03;23.85;;;9.10;87.20;;;;;;5025046;28;20469;-71
2021/11/20 13:06:06;;;;;;;32.20;21.70;;;9.30;85.40;;;;;;5033878;28;20472;-71
2021/11/20 13:08:48;;;;;;;26.77;18.42;;;9.50;84.60;;;;;;5030566;28;20077;-72
2021/11/20 13:11:15;;;;;;;29.85;22.13;;;9.70;84.50;;;;;;5031315;28;20409;-75
2021/11/20 13:14:01;;;;;;;30.25;22.80;;;9.90;84.30;;;;;;5030497;28;20429;-76
2021/11/20 13:16:47;;;;;;;29.58;23.23;;;10.00;81.70;;;;;;5030171;28;20479;-75
2021/11/20 13:20:03;;;;;;;28.17;21.83;;;10.10;81.90;;;;;;5032602;28;20828;-70
2021/11/20 13:22:35;;;;;;;29.98;23.23;;;10.10;81.80;;;;;;5032204;28;20890;-75
2021/11/20 13:25:11;;;;;;;26.48;21.33;;;10.20;81.10;;;;;;5030144;28;20414;-76
2021/11/20 13:27:38;;;;;;;27.13;22.23;;;10.20;80.00;;;;;;5030661;28;20468;-75
2021/11/20 13:30:17;;;;;;;24.27;20.23;;;10.20;80.10;;;;;;5030856;28;20445;-71
2021/11/20 13:32:51;;;;;;;25.98;21.15;;;10.30;79.60;;;;;;5021314;28;20450;-75
2021/11/20 13:35:27;;;;;;;26.13;21.20;;;10.50;79.80;;;;;;5030102;28;20449;-70
2021/11/20 13:37:57;;;;;;;29.35;22.55;;;10.50;79.10;;;;;;5028371;28;20421;-75
2021/11/20 13:40:34;;;;;;;27.27;22.02;;;10.50;78.80;;;;;;5019640;28;20474;-75
2021/11/20 13:43:02;;;;;;;25.58;20.00;;;10.50;79.10;;;;;;5031730;28;20422;-75
2021/11/20 13:45:30;;;;;;;25.08;20.42;;;10.50;79.10;;;;;;5032155;28;20772;-71
2021/11/20 13:47:57;;;;;;;26.38;20.58;;;10.50;78.80;;;;;;5031411;28;20414;-72
2021/11/20 13:50:35;;;;;;;25.20;19.85;;;10.40;79.50;;;;;;5028173;28;20418;-76
2021/11/20 13:53:04;;;;;;;23.17;18.73;;;10.40;78.80;;;;;;5030798;28;20429;-70
2021/11/20 13:55:32;;;;;;;25.15;21.02;;;10.50;79.00;;;;;;5031352;28;20398;-75
2021/11/20 13:57:58;;;;;;;25.52;20.27;;;10.40;79.00;;;;;;5030753;28;20959;-76
2021/11/20 14:00:25;;;;;;;24.88;19.58;;;10.50;79.60;;;;;;5030746;28;20448;-75
2021/11/20 14:02:54;;;;;;;27.83;22.10;;;10.40;79.40;;;;;;5036579;28;20406;-71
2021/11/20 14:05:26;;;;;;;26.10;20.80;;;10.40;79.50;;;;;;5031099;28;20395;-71
2021/11/20 14:08:04;;;;;;;28.35;21.83;;;10.40;79.10;;;;;;5030902;28;20421;-71
2021/11/20 14:10:35;;;;;;;28.10;21.55;;;10.30;79.30;;;;;;5031391;28;20426;-70
2021/11/20 14:15:51;;;;;;;26.17;22.10;;;10.30;79.60;;;;;;5028867;28;20446;-70
2021/11/20 14:18:20;;;;;;;26.95;20.75;;;10.20;80.00;;;;;;5031529;28;20409;-74
2021/11/20 14:21:01;;;;;;;24.47;20.03;;;10.10;80.10;;;;;;5032545;28;20402;-75
2021/11/20 14:23:33;;;;;;;26.20;21.40;;;10.00;80.70;;;;;;5031891;28;20408;-70
2021/11/20 14:26:05;;;;;;;27.33;22.70;;;10.00;80.90;;;;;;5035093;28;20517;-70
2021/11/20 14:28:45;;;;;;;27.85;21.75;;;10.00;80.70;;;;;;5033772;28;20400;-76
2021/11/20 14:31:15;;;;;;;28.00;21.55;;;9.90;80.20;;;;;;5036998;28;20412;-70